createdAt,value
2023-03-19T00:01:24.407Z,14.33
2023-03-19T00:04:09.023Z,14.97
2023-03-19T00:06:37.150Z,11.40
2023-03-19T00:09:06.679Z,12.43
2023-03-19T00:11:35.415Z,11.80
2023-03-19T00:14:06.116Z,14.60
2023-03-19T00:16:35.568Z,12.33
2023-03-19T00:19:06.323Z,12.27
2023-03-19T00:21:37.541Z,11.43
2023-03-19T00:24:20.684Z,12.93
2023-03-19T00:26:51.374Z,10.60
2023-03-19T00:29:34.907Z,15.53
2023-03-19T00:32:07.622Z,12.43
2023-03-19T00:34:42.827Z,11.10
2023-03-19T00:37:12.323Z,12.10
2023-03-19T00:39:46.749Z,12.17
2023-03-19T00:42:19.964Z,14.37
2023-03-19T00:45:03.906Z,11.50
2023-03-19T00:47:36.652Z,15.60
2023-03-19T00:50:14.924Z,11.67
2023-03-19T00:52:49.497Z,11.57
2023-03-19T00:55:20.696Z,10.80
2023-03-19T00:57:50.410Z,12.97
2023-03-19T01:00:28.703Z,14.13
2023-03-19T01:02:59.101Z,11.70
2023-03-19T01:05:31.162Z,11.77
2023-03-19T01:08:01.155Z,12.23
2023-03-19T01:10:29.492Z,11.17
2023-03-19T01:12:59.069Z,15.43
2023-03-19T01:15:27.544Z,12.73
2023-03-19T01:18:07.283Z,11.17
2023-03-19T01:20:45.553Z,11.23
2023-03-19T01:23:15.442Z,12.37
2023-03-19T01:25:50.103Z,9.90
2023-03-19T01:28:31.374Z,10.70
2023-03-19T01:31:09.614Z,11.83
2023-03-19T01:34:10.793Z,11.00
2023-03-19T01:37:06.239Z,11.13
2023-03-19T01:39:39.190Z,10.50
2023-03-19T01:42:24.892Z,11.83
2023-03-19T01:45:33.932Z,10.53
2023-03-19T01:48:29.287Z,12.90
2023-03-19T01:51:17.647Z,15.13
2023-03-19T01:54:19.260Z,10.60
2023-03-19T01:57:24.185Z,12.60
2023-03-19T02:00:15.209Z,13.37
2023-03-19T02:02:55.578Z,11.10
2023-03-19T02:06:00.595Z,12.17
2023-03-19T02:08:37.619Z,12.30
2023-03-19T02:11:12.745Z,11.77
2023-03-19T02:13:49.872Z,13.80
2023-03-19T02:16:26.889Z,21.07
2023-03-19T02:19:01.168Z,13.37
2023-03-19T02:21:31.740Z,12.83
2023-03-19T02:24:07.809Z,11.20
2023-03-19T02:27:02.863Z,10.80
2023-03-19T02:29:37.144Z,12.77
2023-03-19T02:32:08.484Z,15.20
2023-03-19T02:34:45.955Z,11.07
2023-03-19T02:37:26.500Z,11.90
2023-03-19T02:39:58.702Z,12.73
2023-03-19T02:42:46.402Z,11.80
2023-03-19T02:45:24.015Z,12.83
2023-03-19T02:47:52.216Z,10.27
2023-03-19T02:50:27.658Z,12.77
2023-03-19T02:52:58.218Z,11.70
2023-03-19T02:55:27.670Z,14.37
2023-03-19T02:58:07.484Z,10.07
2023-03-19T03:00:38.404Z,11.53
2023-03-19T03:03:16.753Z,11.10
2023-03-19T03:05:49.670Z,12.60
2023-03-19T03:08:22.994Z,10.03
2023-03-19T03:10:51.393Z,10.73
2023-03-19T03:13:23.741Z,11.90
2023-03-19T03:15:54.103Z,11.53
2023-03-19T03:18:23.049Z,12.20
2023-03-19T03:20:52.401Z,12.97
2023-03-19T03:23:22.104Z,11.50
2023-03-19T03:25:59.593Z,11.20
2023-03-19T03:28:37.032Z,10.70
2023-03-19T03:31:16.871Z,12.07
2023-03-19T03:33:46.414Z,10.53
2023-03-19T03:36:23.718Z,14.00
2023-03-19T03:38:51.860Z,13.77
2023-03-19T03:41:24.112Z,11.90
2023-03-19T03:44:01.239Z,13.93
2023-03-19T03:46:40.708Z,10.27
2023-03-19T03:49:10.745Z,13.27
2023-03-19T03:51:42.524Z,13.00
2023-03-19T03:54:14.085Z,11.33
2023-03-19T03:56:42.449Z,13.10
2023-03-19T03:59:17.554Z,11.37
2023-03-19T04:01:49.540Z,15.23
2023-03-19T04:04:22.478Z,11.13
2023-03-19T04:06:53.018Z,11.37
2023-03-19T04:09:40.535Z,13.00
2023-03-19T04:12:11.261Z,15.67
2023-03-19T04:14:50.384Z,11.03
2023-03-19T04:17:24.469Z,15.07
2023-03-19T04:19:56.830Z,13.20
2023-03-19T04:22:26.284Z,12.73
2023-03-19T04:24:54.714Z,15.50
2023-03-19T04:27:24.293Z,14.40
2023-03-19T04:29:57.594Z,12.50
2023-03-19T04:32:35.202Z,12.40
2023-03-19T04:35:21.445Z,12.20
2023-03-19T04:37:50.970Z,13.10
2023-03-19T04:40:27.842Z,14.73
2023-03-19T04:42:56.279Z,13.17
2023-03-19T04:45:37.887Z,11.90
2023-03-19T04:48:09.665Z,11.00
2023-03-19T04:50:41.097Z,15.20
2023-03-19T04:53:12.992Z,14.80
2023-03-19T04:55:49.742Z,13.10
2023-03-19T04:58:20.399Z,12.13
2023-03-19T05:01:01.983Z,13.83
2023-03-19T05:03:59.827Z,10.63
2023-03-19T05:06:32.569Z,13.10
2023-03-19T05:09:06.349Z,13.20
2023-03-19T05:11:36.973Z,12.53
2023-03-19T05:14:09.873Z,13.57
2023-03-19T05:17:27.408Z,14.80
2023-03-19T05:20:23.897Z,10.67
2023-03-19T05:23:06.728Z,12.40
2023-03-19T05:26:09.904Z,15.07
2023-03-19T05:29:00.501Z,12.10
2023-03-19T05:31:57.445Z,14.43
2023-03-19T05:34:27.637Z,12.97
2023-03-19T05:37:04.145Z,12.60
2023-03-19T05:39:53.057Z,12.13
2023-03-19T05:42:23.985Z,13.47
2023-03-19T05:45:00.032Z,12.57
2023-03-19T05:47:52.155Z,13.67
2023-03-19T05:50:47.164Z,11.27
2023-03-19T05:53:30.936Z,15.00
2023-03-19T05:56:36.486Z,13.80
2023-03-19T05:59:45.298Z,16.80
2023-03-19T06:02:38.371Z,11.93
2023-03-19T06:05:39.420Z,14.27
2023-03-19T06:08:37.294Z,13.80
2023-03-19T06:11:30.685Z,15.93
2023-03-19T06:14:28.995Z,14.40
2023-03-19T06:17:43.347Z,14.80
2023-03-19T06:20:19.916Z,14.83
2023-03-19T06:23:16.252Z,14.30
2023-03-19T06:26:04.668Z,13.10
2023-03-19T06:28:56.353Z,14.07
2023-03-19T06:31:24.666Z,15.23
2023-03-19T06:34:17.273Z,18.40
2023-03-19T06:36:55.693Z,16.07
2023-03-19T06:39:25.139Z,16.03
2023-03-19T06:42:01.053Z,16.10
2023-03-19T06:44:38.157Z,14.30
2023-03-19T06:47:07.128Z,15.20
2023-03-19T06:49:43.978Z,12.50
2023-03-19T06:52:20.398Z,20.27
2023-03-19T06:54:51.012Z,16.13
2023-03-19T06:57:27.650Z,17.00
2023-03-19T07:00:10.576Z,17.40
2023-03-19T07:02:40.331Z,17.80
2023-03-19T07:05:25.328Z,15.50
2023-03-19T07:07:53.588Z,17.30
2023-03-19T07:10:31.425Z,19.80
2023-03-19T07:13:10.791Z,15.30
2023-03-19T07:15:39.885Z,14.13
2023-03-19T07:18:15.142Z,14.10
2023-03-19T07:21:05.314Z,16.10
2023-03-19T07:23:43.028Z,15.97
2023-03-19T07:26:11.745Z,14.13
2023-03-19T07:28:46.538Z,13.97
2023-03-19T07:31:22.576Z,14.93
2023-03-19T07:33:53.031Z,16.50
2023-03-19T07:36:23.737Z,19.40
2023-03-19T07:38:59.101Z,19.00
2023-03-19T07:41:32.726Z,14.33
2023-03-19T07:44:08.276Z,16.33
2023-03-19T07:46:45.023Z,13.87
2023-03-19T07:49:18.801Z,15.40
2023-03-19T07:51:52.774Z,14.50
2023-03-19T07:54:24.591Z,15.00
2023-03-19T07:56:53.605Z,15.80
2023-03-19T07:59:24.145Z,25.27
2023-03-19T08:02:02.337Z,28.20
2023-03-19T08:04:33.617Z,20.13
2023-03-19T08:07:06.216Z,14.27
2023-03-19T08:09:35.040Z,13.40
2023-03-19T08:12:07.297Z,15.00
2023-03-19T08:14:41.596Z,19.53
2023-03-19T08:17:17.200Z,16.00
2023-03-19T08:19:48.336Z,17.40
2023-03-19T08:22:20.592Z,15.27
2023-03-19T08:24:49.102Z,15.57
2023-03-19T08:27:22.662Z,13.10
2023-03-19T08:29:54.564Z,15.87
2023-03-19T08:32:25.627Z,15.03
2023-03-19T08:34:56.746Z,16.43
2023-03-19T08:37:28.155Z,17.83
2023-03-19T08:39:56.874Z,17.30
2023-03-19T08:42:32.324Z,14.23
2023-03-19T08:45:03.418Z,16.73
2023-03-19T08:47:37.553Z,13.93
2023-03-19T08:50:15.628Z,14.90
2023-03-19T08:52:52.513Z,14.77
2023-03-19T08:55:21.347Z,16.13
2023-03-19T08:57:50.805Z,14.40
2023-03-19T09:00:24.894Z,16.30
2023-03-19T09:03:01.385Z,17.47
2023-03-19T09:05:32.722Z,17.13
2023-03-19T09:08:02.995Z,15.07
2023-03-19T09:10:38.716Z,22.43
2023-03-19T09:13:06.903Z,15.73
2023-03-19T09:15:37.519Z,17.63
2023-03-19T09:18:11.506Z,17.83
2023-03-19T09:20:42.786Z,15.73
2023-03-19T09:23:12.450Z,19.03
2023-03-19T09:25:43.585Z,15.77
2023-03-19T09:28:19.806Z,16.53
2023-03-19T09:30:54.119Z,16.33
2023-03-19T09:33:25.345Z,18.33
2023-03-19T09:36:02.861Z,16.37
2023-03-19T09:38:32.235Z,13.43
2023-03-19T09:41:15.285Z,14.70
2023-03-19T09:44:01.864Z,13.53
2023-03-19T09:46:40.107Z,15.30
2023-03-19T09:49:16.686Z,15.97
2023-03-19T09:51:55.936Z,15.20
2023-03-19T09:54:36.993Z,14.10
2023-03-19T09:57:08.893Z,14.27
2023-03-19T09:59:38.410Z,14.40
2023-03-19T10:02:39.583Z,14.00
2023-03-19T10:05:20.634Z,18.03
2023-03-19T10:08:05.231Z,15.17
2023-03-19T10:11:06.919Z,14.23
2023-03-19T10:13:47.105Z,13.40
2023-03-19T10:16:21.062Z,15.83
2023-03-19T10:22:01.333Z,13.77
2023-03-19T10:24:34.647Z,15.83
2023-03-19T10:27:12.759Z,13.30
2023-03-19T10:29:43.552Z,14.80
2023-03-19T10:32:19.859Z,13.57
2023-03-19T10:34:53.918Z,12.60
2023-03-19T10:37:27.118Z,16.23
2023-03-19T10:39:58.894Z,15.03
2023-03-19T10:42:46.971Z,18.27
2023-03-19T10:45:24.452Z,13.50
2023-03-19T10:47:58.380Z,15.93
2023-03-19T10:50:52.077Z,16.00
2023-03-19T10:53:49.406Z,15.07
2023-03-19T10:56:27.358Z,16.30
2023-03-19T10:59:22.534Z,14.03
2023-03-19T11:02:02.638Z,15.63
2023-03-19T11:04:42.656Z,15.23
2023-03-19T11:07:30.931Z,19.90
2023-03-19T11:10:05.111Z,15.37
2023-03-19T11:12:37.508Z,14.53
2023-03-19T11:15:23.319Z,17.53
2023-03-19T11:18:01.103Z,16.63
2023-03-19T11:20:36.416Z,16.50
2023-03-19T11:23:17.975Z,18.90
2023-03-19T11:25:51.378Z,17.40
2023-03-19T11:28:36.515Z,17.50
2023-03-19T11:31:12.734Z,15.57
2023-03-19T11:33:58.937Z,16.83
2023-03-19T11:36:30.993Z,13.97
2023-03-19T11:39:22.292Z,19.27
2023-03-19T11:42:31.407Z,15.10
2023-03-19T11:45:13.330Z,16.60
2023-03-19T11:47:49.430Z,16.60
2023-03-19T11:50:32.739Z,17.80
2023-03-19T11:53:12.062Z,16.70
2023-03-19T11:56:02.365Z,18.97
2023-03-19T11:59:06.654Z,14.43
2023-03-19T12:01:59.516Z,15.90
2023-03-19T12:04:48.812Z,15.63
2023-03-19T12:07:26.644Z,13.37
2023-03-19T12:10:04.572Z,14.13
2023-03-19T12:12:39.554Z,15.20
2023-03-19T12:15:26.767Z,14.00
2023-03-19T12:18:19.855Z,14.77
2023-03-19T12:20:55.833Z,18.23
2023-03-19T12:23:37.935Z,15.80
2023-03-19T12:26:17.473Z,13.83
2023-03-19T12:28:59.739Z,13.50
2023-03-19T12:31:48.406Z,14.40
2023-03-19T12:34:33.795Z,14.47
2023-03-19T12:37:13.755Z,14.70
2023-03-19T12:39:55.885Z,11.93
2023-03-19T12:42:33.315Z,13.10
2023-03-19T12:45:15.550Z,13.33
2023-03-19T12:47:48.316Z,13.53
2023-03-19T12:50:30.541Z,13.50
2023-03-19T12:53:03.300Z,20.03
2023-03-19T12:55:42.189Z,17.50
2023-03-19T12:58:22.570Z,15.67
2023-03-19T13:01:11.826Z,15.33
2023-03-19T13:03:47.085Z,12.27
2023-03-19T13:06:22.201Z,15.50
2023-03-19T13:08:54.296Z,13.37
2023-03-19T13:11:37.495Z,12.97
2023-03-19T13:14:13.960Z,19.60
2023-03-19T13:16:50.238Z,15.70
2023-03-19T13:19:28.517Z,14.57
2023-03-19T13:22:03.959Z,10.83
2023-03-19T13:24:37.496Z,12.90
2023-03-19T13:27:13.523Z,14.13
2023-03-19T13:29:59.972Z,11.80
2023-03-19T13:32:44.507Z,13.43
2023-03-19T13:35:31.783Z,14.80
2023-03-19T13:38:03.728Z,12.90
2023-03-19T13:40:47.889Z,12.10
2023-03-19T13:43:55.640Z,13.07
2023-03-19T13:46:54.928Z,13.07
2023-03-19T13:50:21.374Z,12.90
2023-03-19T13:52:52.539Z,11.97
2023-03-19T13:55:47.608Z,12.53
2023-03-19T13:58:42.963Z,11.67
2023-03-19T14:01:13.060Z,14.47
2023-03-19T14:04:03.038Z,13.53
2023-03-19T14:06:39.450Z,12.50
2023-03-19T14:09:33.800Z,15.23
2023-03-19T14:12:32.442Z,19.67
2023-03-19T14:15:06.429Z,14.90
2023-03-19T14:17:43.633Z,14.63
2023-03-19T14:20:37.631Z,15.43
2023-03-19T14:23:39.565Z,13.50
2023-03-19T14:26:18.847Z,12.33
2023-03-19T14:29:01.455Z,13.30
2023-03-19T14:31:38.982Z,14.40
2023-03-19T14:34:24.721Z,12.60
2023-03-19T14:37:01.619Z,12.97
2023-03-19T14:39:44.240Z,12.63
2023-03-19T14:42:24.832Z,13.27
2023-03-19T14:45:31.590Z,14.13
2023-03-19T14:48:28.720Z,11.67
2023-03-19T14:51:29.319Z,11.80
2023-03-19T14:54:04.853Z,12.87
2023-03-19T14:56:42.766Z,14.73
2023-03-19T14:59:16.685Z,21.10
2023-03-19T15:02:00.382Z,15.27
2023-03-19T15:04:32.236Z,13.63
2023-03-19T15:07:18.560Z,14.90
2023-03-19T15:09:52.069Z,13.00
2023-03-19T15:13:15.677Z,13.37
2023-03-19T15:16:14.680Z,16.47
2023-03-19T15:18:47.285Z,12.60
2023-03-19T15:21:18.900Z,11.60
2023-03-19T15:23:57.588Z,11.03
2023-03-19T15:26:37.382Z,10.90
2023-03-19T15:29:14.253Z,13.27
2023-03-19T15:31:52.749Z,15.13
2023-03-19T15:34:38.225Z,14.17
2023-03-19T15:37:23.374Z,12.87
2023-03-19T15:40:01.924Z,12.67
2023-03-19T15:42:40.504Z,12.60
2023-03-19T15:45:26.913Z,14.20
2023-03-19T15:47:59.676Z,13.93
2023-03-19T15:50:40.268Z,11.73
2023-03-19T15:53:34.751Z,14.33
2023-03-19T15:56:19.001Z,19.07
2023-03-19T15:58:55.173Z,19.07
2023-03-19T16:01:30.260Z,14.33
2023-03-19T16:04:04.175Z,15.63
2023-03-19T16:06:43.480Z,13.13
2023-03-19T16:09:35.467Z,14.03
2023-03-19T16:12:34.046Z,13.37
2023-03-19T16:15:30.453Z,14.83
2023-03-19T16:18:36.203Z,15.90
2023-03-19T16:21:21.930Z,14.10
2023-03-19T16:24:08.003Z,24.93
2023-03-19T16:26:42.881Z,13.30
2023-03-19T16:29:41.919Z,14.80
2023-03-19T16:32:27.527Z,15.80
2023-03-19T16:35:19.003Z,14.73
2023-03-19T16:38:02.020Z,18.83
2023-03-19T16:40:53.766Z,15.73
2023-03-19T16:43:29.673Z,15.97
2023-03-19T16:46:17.927Z,15.10
2023-03-19T16:49:00.714Z,19.57
2023-03-19T16:51:37.482Z,19.13
2023-03-19T16:54:09.893Z,21.63
2023-03-19T16:56:43.305Z,45.17
2023-03-19T16:59:25.954Z,36.40
2023-03-19T17:02:07.229Z,34.80
2023-03-19T17:04:39.346Z,28.63
2023-03-19T17:07:24.901Z,25.63
2023-03-19T17:09:55.180Z,25.23
2023-03-19T17:12:29.570Z,21.07
2023-03-19T17:15:02.927Z,20.50
2023-03-19T17:17:37.544Z,25.70
2023-03-19T17:20:18.848Z,18.63
2023-03-19T17:23:24.847Z,16.97
2023-03-19T17:25:57.050Z,21.00
2023-03-19T17:28:36.065Z,22.73
2023-03-19T17:31:08.193Z,23.10
2023-03-19T17:34:08.104Z,24.77
2023-03-19T17:36:44.758Z,21.20
2023-03-19T17:39:26.115Z,17.20
2023-03-19T17:42:09.905Z,20.30
2023-03-19T17:44:48.536Z,23.13
2023-03-19T17:47:30.031Z,24.23
2023-03-19T17:50:09.175Z,23.43
2023-03-19T17:52:49.663Z,22.50
2023-03-19T17:55:32.625Z,21.10
2023-03-19T17:58:26.476Z,21.80
2023-03-19T18:01:09.752Z,24.70
2023-03-19T18:03:41.813Z,21.97
2023-03-19T18:06:28.353Z,19.33
2023-03-19T18:09:09.623Z,26.90
2023-03-19T18:11:45.473Z,23.87
2023-03-19T18:14:28.656Z,23.43
2023-03-19T18:17:06.289Z,22.20
2023-03-19T18:19:44.340Z,23.83
2023-03-19T18:22:21.090Z,28.20
2023-03-19T18:24:53.921Z,28.07
2023-03-19T18:27:45.263Z,33.10
2023-03-19T18:30:33.195Z,33.00
2023-03-19T18:33:09.917Z,31.80
2023-03-19T18:35:49.463Z,32.63
2023-03-19T18:38:40.957Z,36.57
2023-03-19T18:41:23.220Z,29.37
2023-03-19T18:44:15.657Z,28.40
2023-03-19T18:46:54.897Z,28.33
2023-03-19T18:49:43.939Z,26.33
2023-03-19T18:52:38.546Z,25.53
2023-03-19T18:55:18.981Z,27.37
2023-03-19T18:58:02.158Z,25.40
2023-03-19T19:00:42.017Z,29.63
2023-03-19T19:03:21.231Z,30.87
2023-03-19T19:05:55.947Z,32.67
2023-03-19T19:08:35.658Z,30.33
2023-03-19T19:11:18.824Z,32.70
2023-03-19T19:13:56.166Z,30.03
2023-03-19T19:16:45.235Z,35.83
2023-03-19T19:22:27.718Z,32.87
2023-03-19T19:25:04.310Z,30.20
2023-03-19T19:27:47.950Z,35.03
2023-03-19T19:30:34.377Z,28.80
2023-03-19T19:33:26.776Z,32.27
2023-03-19T19:36:06.635Z,36.03
2023-03-19T19:38:38.679Z,32.00
2023-03-19T19:41:19.085Z,34.43
2023-03-19T19:43:51.501Z,32.30
2023-03-19T19:46:27.294Z,36.63
2023-03-19T19:49:08.752Z,33.10
2023-03-19T19:51:43.392Z,32.77
2023-03-19T19:54:22.769Z,40.93
2023-03-19T19:56:56.882Z,36.40
2023-03-19T19:59:35.249Z,32.87
2023-03-19T20:02:29.069Z,30.30
2023-03-19T20:05:25.955Z,31.57
2023-03-19T20:08:16.800Z,29.70
2023-03-19T20:10:48.287Z,31.50
2023-03-19T20:13:29.850Z,30.77
2023-03-19T20:16:02.478Z,37.27
2023-03-19T20:18:44.011Z,28.10
2023-03-19T20:21:30.324Z,26.20
2023-03-19T20:24:09.905Z,34.17
2023-03-19T20:26:45.195Z,32.10
2023-03-19T20:29:22.139Z,28.40
2023-03-19T20:32:01.403Z,30.73
2023-03-19T20:34:43.504Z,28.60
2023-03-19T20:37:28.752Z,26.60
2023-03-19T20:40:02.798Z,29.00
2023-03-19T20:42:48.718Z,27.13
2023-03-19T20:45:34.734Z,31.53
2023-03-19T20:48:18.784Z,28.83
2023-03-19T20:50:53.978Z,29.70
2023-03-19T20:53:26.033Z,27.97
2023-03-19T20:56:01.261Z,29.60
2023-03-19T20:58:39.555Z,34.60
2023-03-19T21:01:13.955Z,34.50
2023-03-19T21:03:49.056Z,31.13
2023-03-19T21:06:46.284Z,28.60
2023-03-19T21:09:33.694Z,28.87
2023-03-19T21:12:16.249Z,30.07
2023-03-19T21:14:48.042Z,31.13
2023-03-19T21:17:32.476Z,32.73
2023-03-19T21:20:12.570Z,26.00
2023-03-19T21:23:00.026Z,27.60
2023-03-19T21:25:34.694Z,26.57
2023-03-19T21:28:07.336Z,29.87
2023-03-19T21:30:44.323Z,32.07
2023-03-19T21:33:27.475Z,34.80
2023-03-19T21:36:04.391Z,31.43
2023-03-19T21:38:43.748Z,30.10
2023-03-19T21:41:24.993Z,32.60
2023-03-19T21:43:58.292Z,29.70
2023-03-19T21:46:30.762Z,30.50
2023-03-19T21:49:01.232Z,34.90
2023-03-19T21:51:38.320Z,30.57
2023-03-19T21:54:10.161Z,28.33
2023-03-19T21:56:50.372Z,25.17
2023-03-19T21:59:24.882Z,22.10
2023-03-19T22:02:04.414Z,28.53
2023-03-19T22:04:34.294Z,26.23
2023-03-19T22:07:12.188Z,26.90
2023-03-19T22:09:44.021Z,24.97
2023-03-19T22:12:29.807Z,25.40
2023-03-19T22:15:00.154Z,25.47
2023-03-19T22:17:36.735Z,23.47
2023-03-19T22:20:09.086Z,25.70
2023-03-19T22:22:41.444Z,20.60
2023-03-19T22:25:12.491Z,24.90
2023-03-19T22:27:46.200Z,23.57
2023-03-19T22:30:26.741Z,24.40
2023-03-19T22:33:05.228Z,24.23
2023-03-19T22:35:37.444Z,25.13
2023-03-19T22:38:13.710Z,28.10
2023-03-19T22:40:44.362Z,24.67
2023-03-19T22:43:29.138Z,20.97
2023-03-19T22:46:03.671Z,25.80
2023-03-19T22:48:35.999Z,25.10
2023-03-19T22:51:15.709Z,22.90
2023-03-19T22:53:47.185Z,22.87
2023-03-19T22:56:23.485Z,25.57
2023-03-19T22:58:57.373Z,24.93
2023-03-19T23:01:34.095Z,24.53
2023-03-19T23:04:21.938Z,22.63
2023-03-19T23:06:51.662Z,22.67
2023-03-19T23:09:24.177Z,26.93
2023-03-19T23:11:54.610Z,29.33
2023-03-19T23:14:32.626Z,28.13
2023-03-19T23:17:04.180Z,27.53
2023-03-19T23:19:37.461Z,27.70
2023-03-19T23:22:15.837Z,25.23
2023-03-19T23:24:47.250Z,26.27
2023-03-19T23:27:24.422Z,25.50
2023-03-19T23:29:58.564Z,27.70
2023-03-19T23:32:32.734Z,27.40
2023-03-19T23:35:06.753Z,26.60
2023-03-19T23:37:35.460Z,23.80
2023-03-19T23:40:06.540Z,23.50
2023-03-19T23:42:39.401Z,23.83
2023-03-19T23:45:22.866Z,20.07
2023-03-19T23:47:56.422Z,26.70
2023-03-19T23:50:32.515Z,29.60
2023-03-19T23:53:05.519Z,24.73
2023-03-19T23:55:35.303Z,22.10
2023-03-19T23:58:05.028Z,20.87
